createdAt,value
2022-12-14T00:02:21.084Z,99704.16
2022-12-14T00:04:49.471Z,99689.37
2022-12-14T00:07:17.491Z,99696.47
2022-12-14T00:09:47.153Z,99679.59
2022-12-14T00:12:15.555Z,99686.44
2022-12-14T00:14:43.703Z,99686.44
2022-12-14T00:17:12.023Z,99693.94
2022-12-14T00:19:40.419Z,99691.41
2022-12-14T00:22:08.547Z,99682.88
2022-12-14T00:24:36.703Z,99691.31
2022-12-14T00:27:05.007Z,99700.59
2022-12-14T00:29:33.387Z,99690.13
2022-12-14T00:32:01.502Z,99695.59
2022-12-14T00:34:29.906Z,99705.72
2022-12-14T00:36:58.006Z,99690.88
2022-12-14T00:39:26.062Z,99694.69
2022-12-14T00:41:54.555Z,99712.09
2022-12-14T00:44:22.941Z,99700.69
2022-12-14T00:46:51.097Z,99710.06
2022-12-14T00:49:19.549Z,99703.50
2022-12-14T00:51:47.687Z,99718.97
2022-12-14T00:54:16.019Z,99716.38
2022-12-14T00:56:44.468Z,99711.97
2022-12-14T00:59:12.617Z,99729.47
2022-12-14T01:01:40.841Z,99711.69
2022-12-14T01:04:19.324Z,99720.66
2022-12-14T01:06:49.655Z,99718.13
2022-12-14T01:09:19.616Z,99737.31
2022-12-14T01:11:48.479Z,99729.25
2022-12-14T01:14:18.647Z,99732.53
2022-12-14T01:16:47.394Z,99741.00
2022-12-14T01:19:18.606Z,99740.84
2022-12-14T01:21:46.980Z,99745.16
2022-12-14T01:24:15.114Z,99733.81
2022-12-14T01:26:43.322Z,99725.13
2022-12-14T01:29:11.718Z,99734.09
2022-12-14T01:31:39.772Z,99723.47
2022-12-14T01:34:09.221Z,99724.81
2022-12-14T01:36:38.976Z,99720.41
2022-12-14T01:39:12.333Z,99718.59
2022-12-14T01:41:43.852Z,99713.47
2022-12-14T01:44:11.835Z,99724.03
2022-12-14T01:46:58.195Z,99717.88
2022-12-14T01:49:39.549Z,99706.22
2022-12-14T01:52:17.007Z,99699.91
2022-12-14T01:54:51.325Z,99683.19
2022-12-14T01:57:25.350Z,99702.16
2022-12-14T01:59:56.456Z,99695.50
2022-12-14T02:02:27.252Z,99690.94
2022-12-14T02:04:59.300Z,99688.13
2022-12-14T02:07:29.249Z,99687.41
2022-12-14T02:10:02.112Z,99673.63
2022-12-14T02:12:44.277Z,99675.50
2022-12-14T02:15:14.129Z,99680.13
2022-12-14T02:17:46.590Z,99680.75
2022-12-14T02:20:16.683Z,99678.16
2022-12-14T02:22:50.432Z,99667.63
2022-12-14T02:25:30.753Z,99679.81
2022-12-14T02:28:30.718Z,99686.88
2022-12-14T02:31:28.943Z,99684.28
2022-12-14T02:34:46.501Z,99670.41
2022-12-14T02:37:29.195Z,99671.25
2022-12-14T02:40:21.991Z,99664.91
2022-12-14T02:43:09.041Z,99669.75
2022-12-14T02:45:53.220Z,99668.34
2022-12-14T02:48:37.054Z,99667.19
2022-12-14T02:51:24.816Z,99659.38
2022-12-14T02:54:17.117Z,99643.16
2022-12-14T02:56:51.618Z,99647.84
2022-12-14T02:59:21.560Z,99651.97
2022-12-14T03:01:51.272Z,99653.28
2022-12-14T03:04:20.802Z,99654.88
2022-12-14T03:06:57.941Z,99651.56
2022-12-14T03:09:29.496Z,99652.81
2022-12-14T03:12:13.411Z,99655.81
2022-12-14T03:14:46.532Z,99647.84
2022-12-14T03:17:21.063Z,99647.31
2022-12-14T03:19:52.924Z,99624.59
2022-12-14T03:22:25.647Z,99642.09
2022-12-14T03:24:58.827Z,99620.59
2022-12-14T03:27:33.810Z,99625.41
2022-12-14T03:30:09.775Z,99618.72
2022-12-14T03:32:42.891Z,99610.25
2022-12-14T03:35:18.260Z,99611.06
2022-12-14T03:38:13.476Z,99611.31
2022-12-14T03:41:07.138Z,99607.38
2022-12-14T03:43:50.029Z,99592.50
2022-12-14T03:46:32.111Z,99590.34
2022-12-14T03:49:21.490Z,99596.00
2022-12-14T03:52:17.532Z,99587.91
2022-12-14T03:55:01.349Z,99582.66
2022-12-14T03:57:44.992Z,99585.06
2022-12-14T04:00:18.921Z,99585.06
2022-12-14T04:03:23.075Z,99574.72
2022-12-14T04:06:21.923Z,99585.12
2022-12-14T04:09:12.299Z,99578.88
2022-12-14T04:12:20.073Z,99588.16
2022-12-14T04:15:17.705Z,99578.88
2022-12-14T04:18:06.507Z,99579.00
2022-12-14T04:21:20.319Z,99597.56
2022-12-14T04:24:13.599Z,99604.91
2022-12-14T04:26:52.771Z,99594.72
2022-12-14T04:29:47.334Z,99582.81
2022-12-14T04:32:19.776Z,99581.53
2022-12-14T04:34:52.251Z,99584.78
2022-12-14T04:37:25.002Z,99579.38
2022-12-14T04:40:24.005Z,99591.97
2022-12-14T04:43:03.882Z,99594.44
2022-12-14T04:45:47.217Z,99589.56
2022-12-14T04:48:39.220Z,99584.22
2022-12-14T04:51:26.281Z,99588.53
2022-12-14T04:54:04.695Z,99577.19
2022-12-14T04:56:52.899Z,99577.25
2022-12-14T04:59:22.003Z,99584.81
2022-12-14T05:02:22.772Z,99569.44
2022-12-14T05:05:27.628Z,99544.22
2022-12-14T05:08:20.583Z,99558.41
2022-12-14T05:11:09.823Z,99549.22
2022-12-14T05:13:48.868Z,99544.44
2022-12-14T05:16:20.033Z,99545.47
2022-12-14T05:18:48.899Z,99554.28
2022-12-14T05:21:35.806Z,99551.59
2022-12-14T05:24:04.524Z,99550.00
2022-12-14T05:26:32.833Z,99538.84
2022-12-14T05:29:01.009Z,99531.53
2022-12-14T05:31:29.184Z,99511.16
2022-12-14T05:33:57.593Z,99513.03
2022-12-14T05:36:25.694Z,99534.97
2022-12-14T05:38:53.795Z,99531.69
2022-12-14T05:41:22.116Z,99531.25
2022-12-14T05:43:50.348Z,99539.69
2022-12-14T05:46:18.572Z,99538.56
2022-12-14T05:48:49.344Z,99535.28
2022-12-14T05:51:18.180Z,99513.72
2022-12-14T05:53:46.655Z,99512.38
2022-12-14T05:56:14.863Z,99515.25
2022-12-14T05:58:43.187Z,99520.59
2022-12-14T06:01:17.213Z,99520.28
2022-12-14T06:03:47.744Z,99522.03
2022-12-14T06:06:15.929Z,99538.03
2022-12-14T06:08:45.999Z,99526.19
2022-12-14T06:11:15.857Z,99523.00
2022-12-14T06:13:44.768Z,99522.88
2022-12-14T06:16:24.702Z,99520.19
2022-12-14T06:18:55.551Z,99509.94
2022-12-14T06:21:26.422Z,99511.03
2022-12-14T06:23:56.142Z,99497.03
2022-12-14T06:26:25.444Z,99511.03
2022-12-14T06:28:53.912Z,99499.88
2022-12-14T06:31:25.346Z,99502.06
2022-12-14T06:33:54.712Z,99502.62
2022-12-14T06:36:29.251Z,99510.25
2022-12-14T06:39:01.595Z,99514.31
2022-12-14T06:41:30.531Z,99505.31
2022-12-14T06:44:06.933Z,99495.34
2022-12-14T06:46:36.812Z,99487.62
2022-12-14T06:49:06.681Z,99483.72
2022-12-14T06:51:40.756Z,99481.16
2022-12-14T06:54:11.596Z,99485.50
2022-12-14T06:56:40.758Z,99494.38
2022-12-14T06:59:09.900Z,99485.97
2022-12-14T07:01:39.240Z,99489.28
2022-12-14T07:04:08.681Z,99486.28
2022-12-14T07:06:39.652Z,99480.72
2022-12-14T07:09:11.589Z,99467.63
2022-12-14T07:11:40.940Z,99456.75
2022-12-14T07:14:16.040Z,99476.16
2022-12-14T07:16:48.387Z,99465.16
2022-12-14T07:19:17.848Z,99462.13
2022-12-14T07:21:46.453Z,99454.75
2022-12-14T07:24:14.678Z,99463.22
2022-12-14T07:26:43.103Z,99455.78
2022-12-14T07:29:12.153Z,99452.97
2022-12-14T07:31:40.882Z,99465.78
2022-12-14T07:34:13.042Z,99457.66
2022-12-14T07:36:43.179Z,99480.53
2022-12-14T07:39:14.981Z,99481.63
2022-12-14T07:41:44.979Z,99482.66
2022-12-14T07:44:13.515Z,99486.91
2022-12-14T07:46:42.289Z,99484.09
2022-12-14T07:49:12.153Z,99482.13
2022-12-14T07:51:44.378Z,99484.22
2022-12-14T07:54:13.942Z,99485.28
2022-12-14T07:56:43.611Z,99491.34
2022-12-14T07:59:19.250Z,99473.50
2022-12-14T08:01:48.314Z,99471.56
2022-12-14T08:04:18.748Z,99470.22
2022-12-14T08:06:48.117Z,99483.13
2022-12-14T08:09:17.170Z,99486.62
2022-12-14T08:11:46.051Z,99491.47
2022-12-14T08:14:19.646Z,99491.91
2022-12-14T08:16:49.567Z,99503.53
2022-12-14T08:19:19.260Z,99497.87
2022-12-14T08:21:48.237Z,99481.34
2022-12-14T08:24:19.369Z,99491.47
2022-12-14T08:26:49.666Z,99498.41
2022-12-14T08:29:18.843Z,99504.56
2022-12-14T08:31:47.192Z,99497.44
2022-12-14T08:34:22.561Z,99498.87
2022-12-14T08:36:50.708Z,99508.81
2022-12-14T08:39:19.326Z,99492.81
2022-12-14T08:41:47.597Z,99491.75
2022-12-14T08:44:17.423Z,99480.13
2022-12-14T08:46:46.023Z,99473.38
2022-12-14T08:49:14.239Z,99474.28
2022-12-14T08:51:42.456Z,99456.50
2022-12-14T08:54:11.382Z,99468.19
2022-12-14T08:56:39.571Z,99466.50
2022-12-14T08:59:08.028Z,99455.97
2022-12-14T09:01:36.553Z,99469.63
2022-12-14T09:04:08.089Z,99474.44
2022-12-14T09:06:39.146Z,99464.00
2022-12-14T09:09:15.481Z,99448.69
2022-12-14T09:11:45.342Z,99448.62
2022-12-14T09:14:13.842Z,99443.66
2022-12-14T09:16:42.040Z,99438.56
2022-12-14T09:19:10.608Z,99464.28
2022-12-14T09:21:39.924Z,99452.97
2022-12-14T09:24:09.736Z,99453.56
2022-12-14T09:26:38.242Z,99453.44
2022-12-14T09:29:06.462Z,99447.41
2022-12-14T09:31:34.696Z,99439.00
2022-12-14T09:34:03.981Z,99432.00
2022-12-14T09:36:32.231Z,99414.47
2022-12-14T09:39:00.466Z,99416.03
2022-12-14T09:41:36.195Z,99425.91
2022-12-14T09:44:26.039Z,99419.75
2022-12-14T09:46:59.505Z,99407.06
2022-12-14T09:49:53.782Z,99398.91
2022-12-14T09:52:40.473Z,99406.97
2022-12-14T09:55:20.351Z,99414.75
2022-12-14T09:57:57.779Z,99400.47
2022-12-14T10:00:32.837Z,99405.66
2022-12-14T10:03:06.296Z,99391.69
2022-12-14T10:05:51.848Z,99386.91
2022-12-14T10:08:36.723Z,99394.81
2022-12-14T10:11:25.033Z,99387.97
2022-12-14T10:14:22.495Z,99385.03
2022-12-14T10:17:12.412Z,99395.75
2022-12-14T10:19:45.948Z,99393.75
2022-12-14T10:22:24.299Z,99381.69
2022-12-14T10:25:06.740Z,99375.00
2022-12-14T10:28:01.165Z,99364.97
2022-12-14T10:30:24.611Z,99352.59
2022-12-14T10:33:03.358Z,99361.97
2022-12-14T10:35:42.780Z,99357.47
2022-12-14T10:38:29.686Z,99356.62
2022-12-14T10:41:23.163Z,99343.31
2022-12-14T10:44:21.104Z,99331.09
2022-12-14T10:47:19.396Z,99323.94
2022-12-14T10:49:53.568Z,99324.38
2022-12-14T10:52:26.025Z,99323.53
2022-12-14T10:55:02.608Z,99332.03
2022-12-14T10:57:31.119Z,99333.41
2022-12-14T11:00:09.633Z,99337.13
2022-12-14T11:02:41.914Z,99318.19
2022-12-14T11:05:34.202Z,99320.63
2022-12-14T11:08:09.110Z,99324.44
2022-12-14T11:10:39.767Z,99325.59
2022-12-14T11:13:20.871Z,99309.84
2022-12-14T11:15:51.270Z,99309.28
2022-12-14T11:18:20.167Z,99303.41
2022-12-14T11:20:57.369Z,99305.66
2022-12-14T11:23:39.155Z,99291.81
2022-12-14T11:26:15.710Z,99297.59
2022-12-14T11:28:53.633Z,99288.00
2022-12-14T11:31:31.277Z,99279.75
2022-12-14T11:34:01.799Z,99280.59
2022-12-14T11:36:41.708Z,99279.22
2022-12-14T11:39:14.397Z,99268.00
2022-12-14T11:41:46.491Z,99253.81
2022-12-14T11:44:22.786Z,99266.69
2022-12-14T11:47:00.237Z,99254.28
2022-12-14T11:49:35.755Z,99244.69
2022-12-14T11:52:12.311Z,99257.62
2022-12-14T11:54:43.499Z,99252.53
2022-12-14T11:57:40.026Z,99247.25
2022-12-14T12:00:25.466Z,99245.44
2022-12-14T12:02:53.892Z,99249.13
2022-12-14T12:05:23.338Z,99236.19
2022-12-14T12:07:51.397Z,99235.06
2022-12-14T12:10:50.232Z,99240.06
2022-12-14T12:13:24.464Z,99238.66
2022-12-14T12:16:06.100Z,99223.25
2022-12-14T12:18:46.184Z,99225.63
2022-12-14T12:21:22.852Z,99226.78
2022-12-14T12:24:17.280Z,99227.47
2022-12-14T12:26:58.549Z,99215.91
2022-12-14T12:29:29.671Z,99207.31
2022-12-14T12:32:01.509Z,99200.16
2022-12-14T12:34:56.113Z,99203.25
2022-12-14T12:37:53.179Z,99199.28
2022-12-14T12:40:42.967Z,99185.22
2022-12-14T12:43:33.320Z,99194.69
2022-12-14T12:46:09.650Z,99180.00
2022-12-14T12:48:48.206Z,99188.00
2022-12-14T12:51:25.140Z,99184.25
2022-12-14T12:54:09.748Z,99181.22
2022-12-14T12:56:51.972Z,99181.62
2022-12-14T12:59:25.169Z,99175.19
2022-12-14T13:01:57.463Z,99176.09
2022-12-14T13:04:37.157Z,99169.19
2022-12-14T13:07:28.532Z,99162.69
2022-12-14T13:10:05.757Z,99154.75
2022-12-14T13:12:43.195Z,99143.72
2022-12-14T13:15:21.119Z,99155.16
2022-12-14T13:18:00.350Z,99153.69
2022-12-14T13:20:32.797Z,99144.62
2022-12-14T13:23:28.396Z,99144.72
2022-12-14T13:26:58.939Z,99149.75
2022-12-14T13:29:33.037Z,99125.91
2022-12-14T13:32:13.314Z,99123.75
2022-12-14T13:35:06.036Z,99139.91
2022-12-14T13:37:37.248Z,99131.31
2022-12-14T13:40:35.120Z,99123.75
2022-12-14T13:43:29.116Z,99121.66
2022-12-14T13:46:11.885Z,99128.22
2022-12-14T13:48:41.731Z,99121.56
2022-12-14T13:51:30.038Z,99099.84
2022-12-14T13:54:03.006Z,99097.00
2022-12-14T13:56:38.391Z,99097.53
2022-12-14T13:59:33.121Z,99093.19
2022-12-14T14:02:02.570Z,99097.44
2022-12-14T14:04:36.513Z,99083.12
2022-12-14T14:07:25.067Z,99092.25
2022-12-14T14:09:57.689Z,99090.88
2022-12-14T14:12:38.229Z,99087.16
2022-12-14T14:15:24.195Z,99071.09
2022-12-14T14:18:01.317Z,99074.22
2022-12-14T14:20:37.458Z,99067.00
2022-12-14T14:23:14.766Z,99064.53
2022-12-14T14:25:49.152Z,99046.22
2022-12-14T14:28:23.057Z,99059.25
2022-12-14T14:30:57.556Z,99068.34
2022-12-14T14:33:48.841Z,99062.78
2022-12-14T14:36:33.515Z,99064.72
2022-12-14T14:39:55.789Z,99052.84
2022-12-14T14:42:24.700Z,99050.84
2022-12-14T14:44:56.008Z,99058.97
2022-12-14T14:47:37.343Z,99062.87
2022-12-14T14:50:23.292Z,99047.47
2022-12-14T14:53:30.957Z,99061.88
2022-12-14T14:56:11.544Z,99071.72
2022-12-14T14:58:42.300Z,99069.34
2022-12-14T15:01:20.089Z,99069.97
2022-12-14T15:03:56.684Z,99047.47
2022-12-14T15:06:29.212Z,99055.84
2022-12-14T15:09:16.561Z,99059.25
2022-12-14T15:11:54.628Z,99053.56
2022-12-14T15:14:43.261Z,99053.28
2022-12-14T15:17:13.369Z,99050.59
2022-12-14T15:19:52.303Z,99048.09
2022-12-14T15:22:42.588Z,99033.44
2022-12-14T15:25:23.879Z,99036.06
2022-12-14T15:27:53.130Z,99042.19
2022-12-14T15:30:27.227Z,99048.84
2022-12-14T15:33:04.078Z,99037.81
2022-12-14T15:35:51.536Z,99044.53
2022-12-14T15:38:30.679Z,99048.75
2022-12-14T15:41:05.984Z,99045.09
2022-12-14T15:43:34.209Z,99049.56
2022-12-14T15:46:03.844Z,99055.75
2022-12-14T15:48:34.607Z,99060.22
2022-12-14T15:51:06.255Z,99045.53
2022-12-14T15:53:35.819Z,99055.03
2022-12-14T15:56:19.211Z,99052.56
2022-12-14T15:58:48.009Z,99059.94
2022-12-14T16:01:31.669Z,99051.00
2022-12-14T16:04:05.170Z,99047.00
2022-12-14T16:06:39.575Z,99038.59
2022-12-14T16:09:27.106Z,99038.31
2022-12-14T16:11:59.006Z,99030.22
2022-12-14T16:14:33.407Z,99024.75
2022-12-14T16:17:03.343Z,99017.28
2022-12-14T16:19:57.354Z,99018.63
2022-12-14T16:22:29.499Z,99008.53
2022-12-14T16:25:09.986Z,98995.75
2022-12-14T16:27:44.023Z,98980.44
2022-12-14T16:30:18.337Z,98988.37
2022-12-14T16:32:50.069Z,98979.53
2022-12-14T16:35:22.504Z,98972.69
2022-12-14T16:37:54.122Z,98986.81
2022-12-14T16:40:37.866Z,98998.22
2022-12-14T16:43:07.804Z,98993.38
2022-12-14T16:45:36.433Z,98993.03
2022-12-14T16:48:24.862Z,98993.38
2022-12-14T16:51:18.646Z,98994.47
2022-12-14T16:54:04.648Z,98987.66
2022-12-14T16:56:45.190Z,98994.31
2022-12-14T16:59:27.887Z,98993.84
2022-12-14T17:01:56.901Z,98978.44
2022-12-14T17:04:35.686Z,98981.91
2022-12-14T17:07:05.116Z,98981.53
2022-12-14T17:09:33.711Z,98976.78
2022-12-14T17:12:11.575Z,98977.50
2022-12-14T17:14:46.042Z,98965.84
2022-12-14T17:17:35.788Z,98980.25
2022-12-14T17:20:10.531Z,98990.22
2022-12-14T17:22:42.177Z,98984.63
2022-12-14T17:25:13.347Z,98977.91
2022-12-14T17:27:42.457Z,98986.09
2022-12-14T17:30:19.766Z,98984.00
2022-12-14T17:32:48.206Z,98987.66
2022-12-14T17:35:19.022Z,98981.91
2022-12-14T17:37:49.284Z,98985.00
2022-12-14T17:40:18.329Z,98995.03
2022-12-14T17:42:52.894Z,99002.50
2022-12-14T17:45:28.770Z,98998.84
2022-12-14T17:47:57.237Z,98990.75
2022-12-14T17:50:26.268Z,98990.41
2022-12-14T17:52:55.123Z,98993.75
2022-12-14T17:55:27.671Z,98978.44
2022-12-14T17:57:57.947Z,98982.91
2022-12-14T18:00:48.199Z,98972.06
2022-12-14T18:03:18.413Z,98975.44
2022-12-14T18:05:52.416Z,98968.22
2022-12-14T18:08:23.349Z,98961.22
2022-12-14T18:10:55.243Z,98969.22
2022-12-14T18:13:23.996Z,98966.78
2022-12-14T18:15:54.032Z,98963.13
2022-12-14T18:18:26.910Z,98952.47
2022-12-14T18:20:59.081Z,98961.47
2022-12-14T18:23:28.801Z,98956.00
2022-12-14T18:25:59.996Z,98958.81
2022-12-14T18:28:28.478Z,98957.81
2022-12-14T18:31:02.298Z,98960.12
2022-12-14T18:33:33.654Z,98945.44
2022-12-14T18:36:02.350Z,98933.03
2022-12-14T18:38:31.122Z,98938.69
2022-12-14T18:41:01.978Z,98928.94
2022-12-14T18:43:32.229Z,98927.28
2022-12-14T18:46:01.404Z,98930.59
2022-12-14T18:48:29.913Z,98917.63
2022-12-14T18:50:59.120Z,98927.19
2022-12-14T18:53:28.247Z,98928.63
2022-12-14T18:55:57.211Z,98937.31
2022-12-14T18:58:28.363Z,98934.47
2022-12-14T19:00:59.292Z,98932.00
2022-12-14T19:03:31.972Z,98930.28
2022-12-14T19:09:00.252Z,98926.44
2022-12-14T19:11:34.482Z,98932.19
2022-12-14T19:14:03.721Z,98925.53
2022-12-14T19:16:32.662Z,98915.53
2022-12-14T19:19:01.870Z,98915.78
2022-12-14T19:21:31.699Z,98920.28
2022-12-14T19:24:00.444Z,98913.97
2022-12-14T19:26:29.423Z,98906.31
2022-12-14T19:28:58.622Z,98895.34
2022-12-14T19:31:27.225Z,98906.66
2022-12-14T19:33:56.152Z,98907.66
2022-12-14T19:36:25.520Z,98910.06
2022-12-14T19:38:53.739Z,98896.09
2022-12-14T19:41:22.501Z,98903.25
2022-12-14T19:43:51.230Z,98911.03
2022-12-14T19:46:20.244Z,98915.31
2022-12-14T19:48:48.841Z,98908.03
2022-12-14T19:51:19.294Z,98910.41
2022-12-14T19:53:47.760Z,98895.81
2022-12-14T19:56:18.288Z,98895.09
2022-12-14T19:58:47.986Z,98888.44
2022-12-14T20:01:17.989Z,98892.81
2022-12-14T20:03:47.141Z,98891.09
2022-12-14T20:06:16.851Z,98882.69
2022-12-14T20:08:45.938Z,98882.88
2022-12-14T20:11:18.622Z,98891.19
2022-12-14T20:13:49.444Z,98906.66
2022-12-14T20:16:23.235Z,98901.91
2022-12-14T20:18:52.345Z,98892.53
2022-12-14T20:21:22.621Z,98874.47
2022-12-14T20:23:51.489Z,98881.47
2022-12-14T20:26:21.629Z,98870.22
2022-12-14T20:29:00.933Z,98869.91
2022-12-14T20:31:30.437Z,98862.56
2022-12-14T20:34:00.985Z,98865.19
2022-12-14T20:36:30.618Z,98867.38
2022-12-14T20:39:05.114Z,98857.25
2022-12-14T20:41:35.183Z,98849.69
2022-12-14T20:44:07.405Z,98849.78
2022-12-14T20:46:39.809Z,98850.94
2022-12-14T20:49:11.883Z,98859.25
2022-12-14T20:51:42.452Z,98856.53
2022-12-14T20:54:13.624Z,98845.94
2022-12-14T20:56:43.042Z,98847.69
2022-12-14T20:59:12.024Z,98843.47
2022-12-14T21:01:41.963Z,98842.47
2022-12-14T21:04:10.865Z,98838.66
2022-12-14T21:06:41.577Z,98846.84
2022-12-14T21:09:11.779Z,98844.47
2022-12-14T21:12:03.298Z,98854.53
2022-12-14T21:14:36.506Z,98860.25
2022-12-14T21:17:05.812Z,98860.81
2022-12-14T21:19:36.137Z,98859.69
2022-12-14T21:22:07.671Z,98869.22
2022-12-14T21:27:28.472Z,98853.25
2022-12-14T21:29:56.746Z,98828.75
2022-12-14T21:32:25.803Z,98864.25
2022-12-14T21:34:54.044Z,98863.34
2022-12-14T21:37:22.231Z,98864.34
2022-12-14T21:39:54.243Z,98863.91
2022-12-14T21:42:24.774Z,98870.47
2022-12-14T21:44:54.293Z,98878.41
2022-12-14T21:47:26.177Z,98872.91
2022-12-14T21:49:55.507Z,98870.66
2022-12-14T21:52:25.761Z,98874.28
2022-12-14T21:54:54.139Z,98865.16
2022-12-14T21:57:50.187Z,98859.34
2022-12-14T22:00:19.541Z,98854.69
2022-12-14T22:02:48.321Z,98859.34
2022-12-14T22:05:16.605Z,98871.91
2022-12-14T22:07:45.028Z,98866.16
2022-12-14T22:10:13.428Z,98880.13
2022-12-14T22:12:41.581Z,98876.56
2022-12-14T22:15:10.464Z,98863.34
2022-12-14T22:17:38.819Z,98878.84
2022-12-14T22:20:07.616Z,98883.94
2022-12-14T22:22:35.868Z,98888.97
2022-12-14T22:25:04.564Z,98874.66
2022-12-14T22:27:32.786Z,98875.56
2022-12-14T22:30:01.060Z,98871.91
2022-12-14T22:32:29.649Z,98867.81
2022-12-14T22:34:57.717Z,98870.16
2022-12-14T22:37:26.165Z,98864.78
2022-12-14T22:39:54.989Z,98868.06
2022-12-14T22:42:23.120Z,98871.72
2022-12-14T22:44:51.429Z,98879.38
2022-12-14T22:47:19.831Z,98884.78
2022-12-14T22:49:47.995Z,98893.06
2022-12-14T22:52:21.278Z,98894.59
2022-12-14T22:54:54.327Z,98887.78
2022-12-14T22:57:22.659Z,98880.63
2022-12-14T23:00:00.296Z,98883.81
2022-12-14T23:02:31.880Z,98884.62
2022-12-14T23:05:00.037Z,98882.00
2022-12-14T23:07:28.408Z,98884.56
2022-12-14T23:10:15.709Z,98885.91
2022-12-14T23:13:03.175Z,98880.06
2022-12-14T23:15:50.206Z,98885.16
2022-12-14T23:18:37.096Z,98881.31
2022-12-14T23:21:31.968Z,98868.62
2022-12-14T23:24:19.175Z,98871.28
2022-12-14T23:27:09.660Z,98880.59
2022-12-14T23:29:57.104Z,98892.56
2022-12-14T23:32:44.083Z,98900.22
2022-12-14T23:35:31.201Z,98890.00
2022-12-14T23:38:26.011Z,98906.16
2022-12-14T23:41:20.063Z,98907.78
2022-12-14T23:44:06.910Z,98901.03
2022-12-14T23:46:54.022Z,98911.47
2022-12-14T23:49:40.946Z,98915.91
2022-12-14T23:52:28.202Z,98910.91
2022-12-14T23:55:15.195Z,98910.91
2022-12-14T23:58:02.323Z,98912.38
